Time;durP1;ratioP1;P1;durP2;ratioP2;P2;SDS_P1;SDS_P2;PMS_P1;PMS_P2;Temp;Humidity;BMP_temperature;BMP_pressure;BME280_temperature;BME280_humidity;BME280_pressure;Samples;Min_cycle;Max_cycle;Signal;HPM_P1;HPM_P2
2022/03/12 00:01:54;;;;;;;;;;;18.70;56.60;;;;;;5014573;28;1198;-72
2022/03/12 00:04:20;;;;;;;;;;;18.70;56.60;;;;;;5012985;28;1949;-72
2022/03/12 00:06:46;;;;;;;;;;;18.70;56.60;;;;;;5013025;28;803;-71
2022/03/12 00:09:12;;;;;;;;;;;18.70;56.70;;;;;;5013975;28;863;-72
2022/03/12 00:11:47;;;;;;;;;;;18.70;56.70;;;;;;5014135;28;1217;-70
2022/03/12 00:14:13;;;;;;;;;;;18.70;56.70;;;;;;5014028;28;855;-70
2022/03/12 00:16:40;;;;;;;;;;;18.70;56.70;;;;;;5014141;28;1127;-70
2022/03/12 00:19:07;;;;;;;;;;;18.70;56.70;;;;;;5014005;28;1211;-71
2022/03/12 00:21:35;;;;;;;;;;;18.70;56.70;;;;;;5013852;28;1330;-72
2022/03/12 00:24:01;;;;;;;;;;;18.70;56.70;;;;;;5012887;28;827;-73
2022/03/12 00:26:29;;;;;;;;;;;18.70;56.70;;;;;;4996415;28;1906;-70
2022/03/12 00:28:54;;;;;;;;;;;18.70;56.70;;;;;;5012606;28;792;-70
2022/03/12 00:31:20;;;;;;;;;;;18.70;56.70;;;;;;5012819;28;891;-70
2022/03/12 00:33:45;;;;;;;;;;;18.70;56.80;;;;;;5012589;28;1304;-72
2022/03/12 00:36:12;;;;;;;;;;;18.70;56.80;;;;;;5013729;28;1171;-70
2022/03/12 00:38:37;;;;;;;;;;;18.70;56.80;;;;;;5013548;28;800;-70
2022/03/12 00:41:04;;;;;;;;;;;18.60;56.70;;;;;;5012559;28;883;-70
2022/03/12 00:43:29;;;;;;;;;;;18.60;56.80;;;;;;5012778;28;1174;-71
2022/03/12 00:45:55;;;;;;;;;;;18.60;56.80;;;;;;5013679;28;1902;-70
2022/03/12 00:48:20;;;;;;;;;;;18.60;56.80;;;;;;5013691;28;784;-70
2022/03/12 00:50:46;;;;;;;;;;;18.60;56.80;;;;;;5013198;28;890;-69
2022/03/12 00:53:11;;;;;;;;;;;18.60;56.80;;;;;;5013602;28;1173;-71
2022/03/12 00:55:37;;;;;;;;;;;18.60;56.80;;;;;;5012468;28;691;-70
2022/03/12 00:58:02;;;;;;;;;;;18.60;56.80;;;;;;5012392;28;846;-70
2022/03/12 01:00:28;;;;;;;;;;;18.60;56.80;;;;;;5013283;28;788;-72
2022/03/12 01:02:53;;;;;;;;;;;18.60;56.90;;;;;;5012258;28;1581;-71
2022/03/12 01:05:21;;;;;;;;;;;18.60;56.90;;;;;;5012272;28;1965;-71
2022/03/12 01:07:46;;;;;;;;;;;18.60;56.90;;;;;;5012190;28;815;-71
2022/03/12 01:10:12;;;;;;;;;;;18.60;56.90;;;;;;5013172;28;779;-70
2022/03/12 01:12:37;;;;;;;;;;;18.60;56.90;;;;;;5012196;28;1295;-70
2022/03/12 01:15:03;;;;;;;;;;;18.60;56.90;;;;;;5013363;28;791;-71
2022/03/12 01:17:32;;;;;;;;;;;18.60;56.90;;;;;;5012020;28;1246;-71
2022/03/12 01:19:58;;;;;;;;;;;18.60;56.90;;;;;;5011546;28;1343;-70
2022/03/12 01:22:24;;;;;;;;;;;18.60;56.90;;;;;;5012051;28;1217;-72
2022/03/12 01:24:50;;;;;;;;;;;18.60;57.00;;;;;;5013447;28;1903;-72
2022/03/12 01:27:15;;;;;;;;;;;18.60;57.00;;;;;;5015395;28;874;-73
2022/03/12 01:29:41;;;;;;;;;;;18.60;57.00;;;;;;4999455;28;1204;-72
2022/03/12 01:32:07;;;;;;;;;;;18.50;57.00;;;;;;5015932;28;1295;-72
2022/03/12 01:34:32;;;;;;;;;;;18.60;57.00;;;;;;5017244;28;902;-71
2022/03/12 01:36:58;;;;;;;;;;;18.50;57.00;;;;;;5017323;28;1108;-72
2022/03/12 01:39:23;;;;;;;;;;;18.60;57.00;;;;;;5016921;28;839;-72
2022/03/12 01:41:49;;;;;;;;;;;18.50;57.30;;;;;;5017049;28;1736;-71
2022/03/12 01:44:14;;;;;;;;;;;18.50;57.00;;;;;;5016913;28;1005;-73
2022/03/12 01:46:44;;;;;;;;;;;18.50;57.00;;;;;;5015740;28;1967;-73
2022/03/12 01:49:10;;;;;;;;;;;18.60;57.00;;;;;;5015422;28;828;-74
2022/03/12 01:51:36;;;;;;;;;;;18.50;57.00;;;;;;5015703;28;1217;-73
2022/03/12 01:54:02;;;;;;;;;;;18.50;57.00;;;;;;5016664;28;1053;-74
2022/03/12 01:56:28;;;;;;;;;;;18.50;57.00;;;;;;5015702;28;887;-73
2022/03/12 01:58:53;;;;;;;;;;;18.50;57.10;;;;;;5016527;28;1037;-73
2022/03/12 02:01:19;;;;;;;;;;;18.50;57.10;;;;;;4998922;28;1188;-74
2022/03/12 02:03:45;;;;;;;;;;;18.50;57.10;;;;;;5015328;28;1217;-74
2022/03/12 02:06:15;;;;;;;;;;;18.50;57.10;;;;;;5015405;28;1956;-73
2022/03/12 02:08:41;;;;;;;;;;;18.50;57.10;;;;;;5015233;28;898;-74
2022/03/12 02:11:06;;;;;;;;;;;18.50;57.10;;;;;;5015352;28;994;-73
2022/03/12 02:13:34;;;;;;;;;;;18.50;57.10;;;;;;5015530;28;1181;-73
2022/03/12 02:16:05;;;;;;;;;;;18.50;57.10;;;;;;5016170;28;1131;-72
2022/03/12 02:18:30;;;;;;;;;;;18.50;57.10;;;;;;5016241;28;1104;-73
2022/03/12 02:20:56;;;;;;;;;;;18.50;57.20;;;;;;5016233;28;816;-73
2022/03/12 02:23:22;;;;;;;;;;;18.50;57.10;;;;;;5016584;28;1298;-73
2022/03/12 02:25:47;;;;;;;;;;;18.50;57.10;;;;;;5016048;28;1961;-74
2022/03/12 02:28:17;;;;;;;;;;;18.50;57.10;;;;;;5016134;28;814;-73
2022/03/12 02:30:45;;;;;;;;;;;18.50;57.10;;;;;;5014496;28;819;-72
2022/03/12 02:33:11;;;;;;;;;;;18.50;57.10;;;;;;5016146;28;1189;-72
2022/03/12 02:35:37;;;;;;;;;;;18.50;57.10;;;;;;5014789;28;1233;-72
2022/03/12 02:38:03;;;;;;;;;;;18.50;57.10;;;;;;5015907;28;787;-69
2022/03/12 02:40:28;;;;;;;;;;;18.50;57.10;;;;;;5015682;28;962;-71
2022/03/12 02:42:54;;;;;;;;;;;18.50;57.10;;;;;;5014722;28;1217;-71
2022/03/12 02:45:20;;;;;;;;;;;18.50;57.10;;;;;;5015666;28;1947;-70
2022/03/12 02:47:47;;;;;;;;;;;18.50;57.10;;;;;;5014669;28;820;-72
2022/03/12 02:50:14;;;;;;;;;;;18.50;57.10;;;;;;5014438;28;847;-71
2022/03/12 02:52:41;;;;;;;;;;;18.50;57.10;;;;;;5015643;28;1205;-71
2022/03/12 02:55:08;;;;;;;;;;;18.50;57.10;;;;;;5014502;28;1195;-72
2022/03/12 02:57:33;;;;;;;;;;;18.50;57.00;;;;;;5014356;28;755;-71
2022/03/12 03:00:04;;;;;;;;;;;18.50;57.00;;;;;;5015334;28;898;-72
2022/03/12 03:02:35;;;;;;;;;;;18.50;57.00;;;;;;5014259;28;1352;-71
2022/03/12 03:05:01;;;;;;;;;;;18.50;57.00;;;;;;5014322;28;1958;-72
2022/03/12 03:07:26;;;;;;;;;;;18.50;57.00;;;;;;4998010;28;1295;-71
2022/03/12 03:09:52;;;;;;;;;;;18.60;57.00;;;;;;5013897;28;808;-72
2022/03/12 03:12:22;;;;;;;;;;;18.50;56.90;;;;;;5014353;28;1296;-72
2022/03/12 03:14:48;;;;;;;;;;;18.60;56.90;;;;;;4998252;28;1326;-73
2022/03/12 03:17:13;;;;;;;;;;;18.60;56.90;;;;;;5013994;28;1202;-72
2022/03/12 03:19:39;;;;;;;;;;;18.60;56.90;;;;;;5015099;28;1030;-71
2022/03/12 03:22:04;;;;;;;;;;;18.60;56.90;;;;;;5014016;28;1217;-71
2022/03/12 03:24:30;;;;;;;;;;;18.60;56.90;;;;;;5014104;28;1894;-71
2022/03/12 03:26:56;;;;;;;;;;;18.60;56.90;;;;;;5015018;28;863;-71
2022/03/12 03:29:22;;;;;;;;;;;18.60;56.90;;;;;;5013642;28;863;-72
2022/03/12 03:31:48;;;;;;;;;;;18.60;56.80;;;;;;5013724;28;1213;-72
2022/03/12 03:34:14;;;;;;;;;;;18.60;56.90;;;;;;5013820;28;816;-71
2022/03/12 03:36:39;;;;;;;;;;;18.60;56.90;;;;;;5013605;28;1235;-71
2022/03/12 03:39:05;;;;;;;;;;;18.60;56.80;;;;;;5014663;28;831;-71
2022/03/12 03:41:31;;;;;;;;;;;18.60;56.90;;;;;;5014648;28;990;-72
2022/03/12 03:43:56;;;;;;;;;;;18.60;56.90;;;;;;5014839;28;941;-72
2022/03/12 03:46:22;;;;;;;;;;;18.60;56.90;;;;;;5013550;28;1906;-71
2022/03/12 03:48:48;;;;;;;;;;;18.60;56.90;;;;;;4996619;28;1204;-70
2022/03/12 03:51:13;;;;;;;;;;;18.60;56.90;;;;;;5014399;28;867;-71
2022/03/12 03:53:39;;;;;;;;;;;18.60;56.90;;;;;;5014538;28;1562;-71
2022/03/12 03:56:04;;;;;;;;;;;18.60;56.90;;;;;;5013253;28;923;-71
2022/03/12 03:58:32;;;;;;;;;;;18.60;56.90;;;;;;5014408;28;803;-71
2022/03/12 04:01:01;;;;;;;;;;;18.60;56.90;;;;;;5013149;28;824;-71
2022/03/12 04:03:32;;;;;;;;;;;18.60;56.80;;;;;;5013153;28;1213;-71
2022/03/12 04:06:01;;;;;;;;;;;18.60;56.80;;;;;;5014438;28;1910;-71
2022/03/12 04:08:27;;;;;;;;;;;18.60;56.80;;;;;;5013064;28;852;-73
2022/03/12 04:10:52;;;;;;;;;;;18.60;56.70;;;;;;5013113;28;862;-71
2022/03/12 04:13:19;;;;;;;;;;;18.60;56.70;;;;;;5013055;28;1185;-71
2022/03/12 04:15:45;;;;;;;;;;;18.70;56.70;;;;;;5012832;28;1227;-70
2022/03/12 04:18:10;;;;;;;;;;;18.70;56.60;;;;;;5014433;28;1100;-71
2022/03/12 04:20:36;;;;;;;;;;;18.70;56.50;;;;;;5012820;28;874;-71
2022/03/12 04:23:01;;;;;;;;;;;18.70;56.40;;;;;;5013939;28;1301;-71
2022/03/12 04:25:30;;;;;;;;;;;18.80;56.40;;;;;;5012817;28;1969;-71
2022/03/12 04:27:56;;;;;;;;;;;18.80;56.30;;;;;;5014044;28;839;-70
2022/03/12 04:30:21;;;;;;;;;;;18.80;56.30;;;;;;5013641;28;889;-71
2022/03/12 04:32:47;;;;;;;;;;;18.80;56.20;;;;;;5013957;28;1311;-71
2022/03/12 04:35:13;;;;;;;;;;;18.80;56.20;;;;;;5013132;28;846;-71
2022/03/12 04:37:38;;;;;;;;;;;18.90;56.10;;;;;;4996639;28;1228;-71
2022/03/12 04:40:11;;;;;;;;;;;18.90;56.10;;;;;;5012999;28;1220;-71
2022/03/12 04:42:44;;;;;;;;;;;18.90;56.00;;;;;;5013005;28;1328;-71
2022/03/12 04:45:13;;;;;;;;;;;18.90;56.00;;;;;;5012851;28;1895;-71
2022/03/12 04:47:42;;;;;;;;;;;18.90;56.00;;;;;;5012843;28;1046;-70
2022/03/12 04:50:08;;;;;;;;;;;18.90;55.90;;;;;;5012288;28;807;-71
2022/03/12 04:52:35;;;;;;;;;;;18.90;55.90;;;;;;5042479;22;1853;-66
2022/03/12 04:55:07;;;;;;;;;;;18.90;55.90;;;;;;5048114;28;823;-67
2022/03/12 04:57:33;;;;;;;;;;;18.90;55.90;;;;;;5033461;28;859;-67
2022/03/12 05:00:00;;;;;;;;;;;18.90;55.90;;;;;;5032962;28;1021;-67
2022/03/12 05:02:26;;;;;;;;;;;18.90;55.80;;;;;;5033282;28;1282;-67
2022/03/12 05:04:51;;;;;;;;;;;19.00;55.90;;;;;;5032925;28;1914;-67
2022/03/12 05:07:17;;;;;;;;;;;18.90;55.80;;;;;;5032072;28;1100;-66
2022/03/12 05:09:44;;;;;;;;;;;18.90;55.80;;;;;;5033034;28;836;-68
2022/03/12 05:12:10;;;;;;;;;;;18.90;55.80;;;;;;5031953;28;1276;-68
2022/03/12 05:14:35;;;;;;;;;;;19.00;55.90;;;;;;5033144;28;850;-67
2022/03/12 05:17:05;;;;;;;;;;;19.00;55.80;;;;;;5031988;28;1120;-67
2022/03/12 05:19:35;;;;;;;;;;;18.90;55.80;;;;;;5020376;28;1882;-67
2022/03/12 05:22:00;;;;;;;;;;;18.90;55.80;;;;;;5036526;28;2134;-66
2022/03/12 05:24:26;;;;;;;;;;;18.90;55.80;;;;;;5031732;28;1217;-65
2022/03/12 05:26:51;;;;;;;;;;;18.90;55.80;;;;;;5030700;28;1958;-66
2022/03/12 05:29:17;;;;;;;;;;;19.00;55.80;;;;;;5030686;28;835;-67
2022/03/12 05:31:42;;;;;;;;;;;18.90;55.70;;;;;;5031937;28;811;-67
2022/03/12 05:34:08;;;;;;;;;;;19.00;55.80;;;;;;5031875;28;1317;-68
2022/03/12 05:36:33;;;;;;;;;;;19.00;55.80;;;;;;5031613;28;1150;-68
2022/03/12 05:38:59;;;;;;;;;;;19.00;55.70;;;;;;5031957;28;1073;-70
2022/03/12 05:41:26;;;;;;;;;;;19.00;55.70;;;;;;5031630;28;894;-69
2022/03/12 05:43:52;;;;;;;;;;;19.00;55.60;;;;;;5031909;28;1201;-69
2022/03/12 05:46:20;;;;;;;;;;;19.00;55.60;;;;;;5030179;28;1941;-69
2022/03/12 05:48:47;;;;;;;;;;;19.10;55.60;;;;;;5030780;28;764;-68
2022/03/12 05:51:12;;;;;;;;;;;19.00;55.50;;;;;;5031655;28;827;-68
2022/03/12 05:53:38;;;;;;;;;;;19.10;55.60;;;;;;5031509;28;1321;-66
2022/03/12 05:56:04;;;;;;;;;;;19.10;55.50;;;;;;5029322;28;1616;-67
2022/03/12 05:58:38;;;;;;;;;;;19.10;55.60;;;;;;5027467;28;1358;-67
2022/03/12 06:01:03;;;;;;;;;;;19.10;55.50;;;;;;5029978;28;885;-65
2022/03/12 06:03:29;;;;;;;;;;;19.10;55.50;;;;;;5031357;28;1304;-68
2022/03/12 06:05:56;;;;;;;;;;;19.10;55.50;;;;;;5031007;28;1960;-69
2022/03/12 06:08:22;;;;;;;;;;;19.10;55.50;;;;;;5031265;28;911;-67
2022/03/12 06:10:52;;;;;;;;;;;19.10;55.50;;;;;;5029352;28;804;-67
2022/03/12 06:13:28;;;;;;;;;;;19.10;55.50;;;;;;5028958;28;1253;-69
2022/03/12 06:16:02;;;;;;;;;;;19.10;55.50;;;;;;5035343;28;1209;-69
2022/03/12 06:18:33;;;;;;;;;;;19.10;55.50;;;;;;5034661;28;1107;-68
2022/03/12 06:20:58;;;;;;;;;;;19.10;55.50;;;;;;5026866;28;2433;-69
2022/03/12 06:23:24;;;;;;;;;;;19.10;55.50;;;;;;5032666;28;2333;-67
2022/03/12 06:25:51;;;;;;;;;;;19.10;55.50;;;;;;5033942;28;1954;-67
2022/03/12 06:28:17;;;;;;;;;;;19.10;55.50;;;;;;5034788;28;903;-68
2022/03/12 06:30:42;;;;;;;;;;;19.10;55.50;;;;;;5035054;28;851;-67
2022/03/12 06:33:08;;;;;;;;;;;19.10;55.50;;;;;;5035939;28;1206;-67
2022/03/12 06:35:34;;;;;;;;;;;19.10;55.50;;;;;;5034446;28;1107;-66
2022/03/12 06:37:59;;;;;;;;;;;19.10;55.50;;;;;;5034222;28;842;-66
2022/03/12 06:40:31;;;;;;;;;;;19.10;55.50;;;;;;5034229;28;891;-66
2022/03/12 06:42:57;;;;;;;;;;;19.00;55.50;;;;;;5035713;28;1322;-66
2022/03/12 06:45:23;;;;;;;;;;;19.10;55.50;;;;;;5035574;28;1899;-67
2022/03/12 06:47:48;;;;;;;;;;;19.00;55.50;;;;;;5035866;28;878;-66
2022/03/12 06:50:15;;;;;;;;;;;19.10;55.60;;;;;;5035358;28;815;-66
2022/03/12 06:52:43;;;;;;;;;;;19.10;55.50;;;;;;5035437;28;1305;-65
2022/03/12 06:55:09;;;;;;;;;;;19.00;55.50;;;;;;5034315;28;1066;-65
2022/03/12 06:57:35;;;;;;;;;;;19.10;55.50;;;;;;5034479;28;744;-68
2022/03/12 07:00:00;;;;;;;;;;;19.00;55.50;;;;;;5034140;28;823;-67
2022/03/12 07:02:26;;;;;;;;;;;19.10;55.60;;;;;;5035403;28;1199;-68
2022/03/12 07:04:51;;;;;;;;;;;19.10;55.60;;;;;;5035349;28;1903;-67
2022/03/12 07:07:17;;;;;;;;;;;19.10;55.50;;;;;;5035849;28;1141;-67
2022/03/12 07:09:42;;;;;;;;;;;19.00;55.50;;;;;;5034769;28;792;-68
2022/03/12 07:12:08;;;;;;;;;;;19.00;55.50;;;;;;5034986;28;1181;-67
2022/03/12 07:14:34;;;;;;;;;;;19.00;55.50;;;;;;5031282;28;1419;-70
2022/03/12 07:16:59;;;;;;;;;;;19.10;55.60;;;;;;5034785;28;1110;-69
2022/03/12 07:19:25;;;;;;;;;;;19.00;55.50;;;;;;5034572;28;962;-69
2022/03/12 07:21:51;;;;;;;;;;;19.00;55.50;;;;;;5034929;28;1296;-70
2022/03/12 07:24:16;;;;;;;;;;;19.00;55.50;;;;;;5033814;28;831;-69
2022/03/12 07:26:43;;;;;;;;;;;19.00;55.50;;;;;;5034734;28;1890;-64
2022/03/12 07:29:08;;;;;;;;;;;19.00;55.60;;;;;;5030720;28;1707;-66
2022/03/12 07:31:36;;;;;;;;;;;19.00;55.60;;;;;;5034632;28;1282;-72
2022/03/12 07:34:01;;;;;;;;;;;19.00;55.60;;;;;;5034882;28;1207;-73
2022/03/12 07:36:27;;;;;;;;;;;19.00;55.60;;;;;;5033490;28;1152;-71
2022/03/12 07:38:52;;;;;;;;;;;19.00;55.60;;;;;;5033368;28;1563;-71
2022/03/12 07:41:18;;;;;;;;;;;19.00;55.60;;;;;;5034411;28;890;-69
2022/03/12 07:43:43;;;;;;;;;;;19.00;55.60;;;;;;5034405;28;1189;-71
2022/03/12 07:46:08;;;;;;;;;;;19.00;55.60;;;;;;5033104;28;1898;-72
2022/03/12 07:48:34;;;;;;;;;;;19.00;55.60;;;;;;5034750;28;796;-74
2022/03/12 07:51:01;;;;;;;;;;;19.00;55.60;;;;;;5034376;28;804;-67
2022/03/12 07:53:27;;;;;;;;;;;19.00;55.60;;;;;;5033656;28;1201;-67
2022/03/12 07:55:52;;;;;;;;;;;19.00;55.60;;;;;;5034081;28;882;-67
2022/03/12 07:58:18;;;;;;;;;;;19.10;55.70;;;;;;5033661;28;827;-67
2022/03/12 08:00:43;;;;;;;;;;;19.20;55.50;;;;;;5031521;28;2178;-67
2022/03/12 08:03:09;;;;;;;;;;;19.30;55.40;;;;;;5029415;28;2233;-67
2022/03/12 08:05:35;;;;;;;;;;;19.40;55.20;;;;;;5032900;28;1909;-67
2022/03/12 08:08:02;;;;;;;;;;;19.50;55.00;;;;;;5034268;28;1192;-67
2022/03/12 08:10:27;;;;;;;;;;;19.70;54.70;;;;;;5034272;28;832;-67
2022/03/12 08:12:54;;;;;;;;;;;19.80;54.50;;;;;;5033109;28;1275;-67
2022/03/12 08:15:20;;;;;;;;;;;19.90;54.10;;;;;;5034374;28;1134;-67
2022/03/12 08:17:45;;;;;;;;;;;20.10;53.90;;;;;;5029621;28;1124;-67
2022/03/12 08:20:11;;;;;;;;;;;20.20;53.70;;;;;;5029503;28;852;-67
2022/03/12 08:22:38;;;;;;;;;;;20.20;53.40;;;;;;5014603;28;1279;-68
2022/03/12 08:25:04;;;;;;;;;;;20.30;53.20;;;;;;5029334;28;1980;-67
2022/03/12 08:27:29;;;;;;;;;;;20.40;53.10;;;;;;5029608;28;878;-67
2022/03/12 08:29:55;;;;;;;;;;;20.50;52.90;;;;;;5014002;28;804;-67
2022/03/12 08:32:20;;;;;;;;;;;20.50;52.80;;;;;;5029412;28;1130;-67
2022/03/12 08:34:46;;;;;;;;;;;20.50;52.70;;;;;;5014230;28;930;-68
2022/03/12 08:37:12;;;;;;;;;;;20.60;52.50;;;;;;5028984;28;1115;-67
2022/03/12 08:39:38;;;;;;;;;;;20.70;52.50;;;;;;5033530;28;922;-68
2022/03/12 08:42:04;;;;;;;;;;;20.70;52.50;;;;;;5033807;28;1294;-67
2022/03/12 08:44:29;;;;;;;;;;;20.70;52.30;;;;;;5032693;28;847;-67
2022/03/12 08:46:54;;;;;;;;;;;20.70;52.20;;;;;;5032313;28;1898;-67
2022/03/12 08:49:20;;;;;;;;;;;20.80;52.30;;;;;;5033600;28;903;-67
2022/03/12 08:51:46;;;;;;;;;;;20.80;52.20;;;;;;5033521;28;818;-67
2022/03/12 08:54:11;;;;;;;;;;;20.80;52.20;;;;;;5033465;28;1326;-67
2022/03/12 08:56:36;;;;;;;;;;;20.80;52.20;;;;;;5032473;28;1105;-67
2022/03/12 08:59:05;;;;;;;;;;;20.90;52.30;;;;;;5033350;28;800;-67
2022/03/12 09:01:30;;;;;;;;;;;20.90;52.30;;;;;;5032529;28;1033;-67
2022/03/12 09:03:56;;;;;;;;;;;20.90;52.40;;;;;;5033517;28;1305;-67
2022/03/12 09:06:23;;;;;;;;;;;20.90;52.40;;;;;;5033170;28;1957;-68
2022/03/12 09:08:49;;;;;;;;;;;20.80;52.40;;;;;;5027194;28;1577;-67
2022/03/12 09:11:14;;;;;;;;;;;20.90;52.40;;;;;;5032967;28;1272;-68
2022/03/12 09:13:39;;;;;;;;;;;20.90;52.40;;;;;;5027169;28;1481;-68
2022/03/12 09:16:05;;;;;;;;;;;20.80;52.40;;;;;;5032981;28;1177;-68
2022/03/12 09:18:31;;;;;;;;;;;20.80;52.30;;;;;;5032690;28;1198;-68
2022/03/12 09:20:56;;;;;;;;;;;20.80;52.30;;;;;;5033105;28;941;-68
2022/03/12 09:23:22;;;;;;;;;;;20.80;52.30;;;;;;5032788;28;1172;-68
2022/03/12 09:25:47;;;;;;;;;;;20.80;52.40;;;;;;5031953;28;1953;-68
2022/03/12 09:28:13;;;;;;;;;;;20.80;52.40;;;;;;5031757;28;820;-67
2022/03/12 09:30:38;;;;;;;;;;;20.70;52.40;;;;;;5024648;28;1192;-67
2022/03/12 09:33:04;;;;;;;;;;;20.70;52.40;;;;;;5013360;28;1298;-68
2022/03/12 09:35:29;;;;;;;;;;;20.70;52.50;;;;;;5014590;28;1116;-68
2022/03/12 09:37:55;;;;;;;;;;;20.70;52.60;;;;;;5032705;28;792;-68
2022/03/12 09:40:20;;;;;;;;;;;20.60;52.60;;;;;;5032467;28;915;-68
2022/03/12 09:42:46;;;;;;;;;;;20.60;52.70;;;;;;5032583;28;1194;-67
2022/03/12 09:45:12;;;;;;;;;;;20.60;52.70;;;;;;5032755;28;1890;-68
2022/03/12 09:47:38;;;;;;;;;;;20.60;52.80;;;;;;5033922;28;811;-68
2022/03/12 09:50:04;;;;;;;;;;;20.50;52.80;;;;;;5036274;28;931;-67
2022/03/12 09:52:29;;;;;;;;;;;20.50;52.90;;;;;;5035394;28;1211;-68
2022/03/12 09:54:54;;;;;;;;;;;20.50;52.90;;;;;;5036668;28;724;-67
2022/03/12 09:57:20;;;;;;;;;;;20.50;53.00;;;;;;5036518;28;792;-68
2022/03/12 09:59:46;;;;;;;;;;;20.50;53.10;;;;;;5036242;28;1065;-68
2022/03/12 10:02:12;;;;;;;;;;;20.50;53.10;;;;;;5036167;28;1381;-67
2022/03/12 10:04:37;;;;;;;;;;;20.40;53.10;;;;;;5035140;28;1592;-68
2022/03/12 10:07:05;;;;;;;;;;;20.40;53.20;;;;;;5036174;28;1938;-68
2022/03/12 10:09:31;;;;;;;;;;;20.40;53.20;;;;;;5036424;28;879;-67
2022/03/12 10:11:56;;;;;;;;;;;20.40;53.30;;;;;;5035900;28;1623;-68
2022/03/12 10:14:24;;;;;;;;;;;20.30;53.30;;;;;;5035132;28;966;-68
2022/03/12 10:16:50;;;;;;;;;;;20.40;53.40;;;;;;5036001;28;1204;-68
2022/03/12 10:19:15;;;;;;;;;;;20.30;53.40;;;;;;5036058;28;1014;-68
2022/03/12 10:21:45;;;;;;;;;;;20.30;53.40;;;;;;5036124;28;923;-68
2022/03/12 10:24:13;;;;;;;;;;;20.30;53.50;;;;;;5036809;28;1178;-68
2022/03/12 10:26:38;;;;;;;;;;;20.30;53.50;;;;;;5036091;28;1914;-68
2022/03/12 10:29:05;;;;;;;;;;;20.30;53.60;;;;;;5034881;28;865;-68
2022/03/12 10:31:30;;;;;;;;;;;20.20;53.60;;;;;;5036736;28;1005;-68
2022/03/12 10:34:15;;;;;;;;;;;20.20;53.60;;;;;;5035696;28;1208;-68
2022/03/12 10:36:40;;;;;;;;;;;20.20;53.70;;;;;;5035718;28;1210;-67
2022/03/12 10:39:05;;;;;;;;;;;20.20;53.70;;;;;;5035887;28;981;-68
2022/03/12 10:41:31;;;;;;;;;;;20.20;53.70;;;;;;5034759;28;1017;-68
2022/03/12 10:43:56;;;;;;;;;;;20.20;53.80;;;;;;5035933;28;1309;-68
2022/03/12 10:46:27;;;;;;;;;;;20.10;53.80;;;;;;5035693;28;1895;-67
2022/03/12 10:48:56;;;;;;;;;;;20.10;53.90;;;;;;5035573;28;866;-68
2022/03/12 10:51:24;;;;;;;;;;;20.10;53.90;;;;;;5035746;28;874;-67
2022/03/12 10:53:50;;;;;;;;;;;20.10;53.90;;;;;;5048196;22;3327;-69
2022/03/12 10:56:15;;;;;;;;;;;20.10;54.00;;;;;;4995041;28;2270;-70
2022/03/12 10:58:41;;;;;;;;;;;20.10;54.00;;;;;;5015954;28;1247;-68
2022/03/12 11:01:06;;;;;;;;;;;20.10;54.00;;;;;;5014524;28;1115;-68
2022/03/12 11:03:35;;;;;;;;;;;20.10;54.00;;;;;;5007439;28;2066;-71
2022/03/12 11:06:01;;;;;;;;;;;20.10;54.00;;;;;;4986651;28;2470;-71
2022/03/12 11:08:27;;;;;;;;;;;20.10;54.00;;;;;;5005523;28;1123;-70
2022/03/12 11:10:58;;;;;;;;;;;20.10;54.00;;;;;;5013066;28;804;-70
2022/03/12 11:16:14;;;;;;;;;;;20.10;53.90;;;;;;5015270;28;1127;-70
2022/03/12 11:18:46;;;;;;;;;;;20.20;53.90;;;;;;5014290;28;1125;-71
2022/03/12 11:21:11;;;;;;;;;;;20.20;53.90;;;;;;5014563;28;1001;-70
2022/03/12 11:23:36;;;;;;;;;;;20.20;53.90;;;;;;5014643;28;1199;-71
2022/03/12 11:26:06;;;;;;;;;;;20.20;53.90;;;;;;4996955;28;1906;-71
2022/03/12 11:28:32;;;;;;;;;;;20.20;53.90;;;;;;4996863;28;1304;-70
2022/03/12 11:30:57;;;;;;;;;;;20.20;53.90;;;;;;4997171;28;797;-71
2022/03/12 11:33:26;;;;;;;;;;;20.10;53.90;;;;;;5014326;28;1321;-70
2022/03/12 11:35:58;;;;;;;;;;;20.20;53.90;;;;;;5014599;28;1186;-70
2022/03/12 11:38:24;;;;;;;;;;;20.20;53.90;;;;;;4997301;28;773;-71
2022/03/12 11:41:01;;;;;;;;;;;20.10;53.90;;;;;;5014016;28;795;-71
2022/03/12 11:43:31;;;;;;;;;;;20.10;53.90;;;;;;4997277;28;1283;-71
2022/03/12 11:45:59;;;;;;;;;;;20.10;53.90;;;;;;4996659;28;1907;-71
2022/03/12 11:48:29;;;;;;;;;;;20.10;53.90;;;;;;5014263;28;836;-70
2022/03/12 11:50:55;;;;;;;;;;;20.10;54.00;;;;;;4994984;28;2148;-71
2022/03/12 11:53:20;;;;;;;;;;;20.10;54.00;;;;;;5015731;28;1545;-70
2022/03/12 11:55:47;;;;;;;;;;;20.10;54.00;;;;;;5013676;28;1084;-70
2022/03/12 11:58:12;;;;;;;;;;;20.10;54.00;;;;;;5002577;28;1103;-70
2022/03/12 12:00:38;;;;;;;;;;;20.10;54.10;;;;;;5004751;28;1116;-70
2022/03/12 12:03:03;;;;;;;;;;;20.00;54.10;;;;;;5013817;28;1317;-70
2022/03/12 12:05:30;;;;;;;;;;;20.00;54.10;;;;;;5013952;28;1967;-69
2022/03/12 12:07:55;;;;;;;;;;;20.00;54.10;;;;;;5013444;28;1099;-69
2022/03/12 12:10:27;;;;;;;;;;;20.00;54.20;;;;;;5013133;28;1020;-69
2022/03/12 12:12:53;;;;;;;;;;;20.00;54.20;;;;;;5012572;28;1204;-69
2022/03/12 12:15:26;;;;;;;;;;;20.00;54.20;;;;;;4996498;28;1427;-70
2022/03/12 12:17:52;;;;;;;;;;;19.90;54.10;;;;;;5013572;28;1175;-70
2022/03/12 12:20:19;;;;;;;;;;;19.90;54.20;;;;;;5013336;28;796;-69
2022/03/12 12:22:44;;;;;;;;;;;19.90;54.20;;;;;;5013797;28;1209;-70
2022/03/12 12:25:10;;;;;;;;;;;19.90;54.20;;;;;;4996034;28;1965;-70
2022/03/12 12:27:41;;;;;;;;;;;20.00;54.20;;;;;;4996109;28;765;-71
2022/03/12 12:30:07;;;;;;;;;;;19.90;54.20;;;;;;4996111;28;879;-70
2022/03/12 12:32:33;;;;;;;;;;;20.00;54.20;;;;;;4995600;28;1223;-70
2022/03/12 12:35:04;;;;;;;;;;;20.00;54.20;;;;;;4995799;28;1258;-70
2022/03/12 12:37:48;;;;;;;;;;;20.00;54.20;;;;;;5013425;28;1171;-70
2022/03/12 12:40:16;;;;;;;;;;;20.00;54.10;;;;;;5012928;28;883;-69
2022/03/12 12:42:42;;;;;;;;;;;20.00;54.10;;;;;;5013129;28;1192;-69
2022/03/12 12:45:14;;;;;;;;;;;20.10;54.10;;;;;;4995644;28;1903;-69
2022/03/12 12:47:40;;;;;;;;;;;20.10;54.00;;;;;;4979430;28;1157;-70
2022/03/12 12:50:06;;;;;;;;;;;20.10;54.00;;;;;;5012958;28;826;-69
2022/03/12 12:52:32;;;;;;;;;;;20.10;54.00;;;;;;4995552;28;1449;-70
2022/03/12 12:54:58;;;;;;;;;;;20.10;54.00;;;;;;5013677;28;843;-70
2022/03/12 12:57:36;;;;;;;;;;;20.10;54.00;;;;;;5013050;28;693;-70
2022/03/12 13:00:23;;;;;;;;;;;20.10;53.90;;;;;;4995181;28;831;-69
2022/03/12 13:02:52;;;;;;;;;;;20.10;53.90;;;;;;5013104;28;1338;-70
2022/03/12 13:05:18;;;;;;;;;;;20.10;53.90;;;;;;5013160;28;1975;-70
2022/03/12 13:08:10;;;;;;;;;;;20.10;53.90;;;;;;4995341;28;1022;-70
2022/03/12 13:10:35;;;;;;;;;;;20.10;53.90;;;;;;5008558;28;1007;-70
2022/03/12 13:13:08;;;;;;;;;;;20.10;54.00;;;;;;4995004;28;1187;-70
2022/03/12 13:15:37;;;;;;;;;;;20.10;54.00;;;;;;4995642;28;1238;-70
2022/03/12 13:18:13;;;;;;;;;;;20.00;53.90;;;;;;5002463;28;1129;-70
2022/03/12 13:20:42;;;;;;;;;;;20.00;54.00;;;;;;4995095;28;963;-69
2022/03/12 13:23:08;;;;;;;;;;;20.00;54.00;;;;;;4995043;28;1496;-70
2022/03/12 13:25:54;;;;;;;;;;;20.00;54.00;;;;;;5012704;28;1902;-70
2022/03/12 13:28:39;;;;;;;;;;;20.00;54.00;;;;;;5012403;28;1138;-70
2022/03/12 13:31:13;;;;;;;;;;;20.00;54.10;;;;;;4995046;28;859;-70
2022/03/12 13:33:39;;;;;;;;;;;20.00;54.10;;;;;;5012915;28;1270;-70
2022/03/12 13:36:04;;;;;;;;;;;20.00;54.20;;;;;;5012775;28;1096;-70
2022/03/12 13:38:29;;;;;;;;;;;19.90;54.10;;;;;;5012591;28;831;-70
2022/03/12 13:40:55;;;;;;;;;;;19.90;54.10;;;;;;5012330;28;838;-70
2022/03/12 13:43:20;;;;;;;;;;;19.90;54.30;;;;;;5012545;28;1221;-70
2022/03/12 13:45:58;;;;;;;;;;;19.90;54.20;;;;;;5012356;28;1945;-70
2022/03/12 13:48:24;;;;;;;;;;;19.90;54.20;;;;;;5013178;28;757;-70
2022/03/12 13:50:54;;;;;;;;;;;19.90;54.20;;;;;;5011995;28;692;-70
2022/03/12 13:53:21;;;;;;;;;;;19.90;54.30;;;;;;5012455;28;1348;-70
2022/03/12 13:55:46;;;;;;;;;;;19.90;54.40;;;;;;4995193;28;871;-70
2022/03/12 13:58:12;;;;;;;;;;;19.90;54.40;;;;;;5012297;28;858;-71
2022/03/12 14:00:39;;;;;;;;;;;19.90;54.40;;;;;;5012043;28;811;-70
2022/03/12 14:03:05;;;;;;;;;;;19.90;54.50;;;;;;4994967;28;1240;-70
2022/03/12 14:05:32;;;;;;;;;;;19.80;54.40;;;;;;5012634;28;1902;-70
2022/03/12 14:07:58;;;;;;;;;;;19.80;54.40;;;;;;5012032;28;903;-70
2022/03/12 14:10:24;;;;;;;;;;;19.80;54.50;;;;;;4994564;28;876;-70
2022/03/12 14:12:56;;;;;;;;;;;19.80;54.50;;;;;;4994730;28;1311;-70
2022/03/12 14:15:23;;;;;;;;;;;19.80;54.50;;;;;;5012641;28;1210;-69
2022/03/12 14:17:51;;;;;;;;;;;19.80;54.20;;;;;;4994722;28;1136;-69
2022/03/12 14:20:18;;;;;;;;;;;19.80;54.10;;;;;;5011837;28;856;-70
2022/03/12 14:22:45;;;;;;;;;;;19.70;54.20;;;;;;5012356;28;1216;-70
2022/03/12 14:25:11;;;;;;;;;;;19.70;54.30;;;;;;4994678;28;1902;-69
2022/03/12 14:27:36;;;;;;;;;;;19.70;54.30;;;;;;4994705;28;875;-71
2022/03/12 14:30:02;;;;;;;;;;;19.70;54.40;;;;;;4994436;28;910;-71
2022/03/12 14:32:28;;;;;;;;;;;19.70;54.40;;;;;;4994688;28;1297;-71
2022/03/12 14:34:55;;;;;;;;;;;19.70;54.40;;;;;;5015226;28;823;-71
2022/03/12 14:37:23;;;;;;;;;;;19.70;54.50;;;;;;4997937;28;1262;-69